sensor_id;sensor_type;location;lat;lon;timestamp;P1;durP1;ratioP1;P2;durP2;ratioP2
14247;SDS011;7208;49.826;6.004;2023-02-11T00:01:10;20.10;;;13.77;;
14247;SDS011;7208;49.826;6.004;2023-02-11T00:03:38;18.57;;;13.50;;
14247;SDS011;7208;49.826;6.004;2023-02-11T00:06:05;22.07;;;13.93;;
14247;SDS011;7208;49.826;6.004;2023-02-11T00:08:33;17.37;;;13.17;;
14247;SDS011;7208;49.826;6.004;2023-02-11T00:10:59;21.70;;;15.03;;
14247;SDS011;7208;49.826;6.004;2023-02-11T00:13:26;17.47;;;14.47;;
14247;SDS011;7208;49.826;6.004;2023-02-11T00:15:52;18.00;;;13.53;;
14247;SDS011;7208;49.826;6.004;2023-02-11T00:18:18;23.77;;;15.83;;
14247;SDS011;7208;49.826;6.004;2023-02-11T00:20:45;20.27;;;15.03;;
14247;SDS011;7208;49.826;6.004;2023-02-11T00:23:11;20.63;;;13.43;;
14247;SDS011;7208;49.826;6.004;2023-02-11T00:25:38;21.07;;;14.70;;
14247;SDS011;7208;49.826;6.004;2023-02-11T00:28:04;23.07;;;14.50;;
14247;SDS011;7208;49.826;6.004;2023-02-11T00:30:30;25.77;;;15.90;;
14247;SDS011;7208;49.826;6.004;2023-02-11T00:32:56;21.87;;;13.90;;
14247;SDS011;7208;49.826;6.004;2023-02-11T00:35:22;22.17;;;14.97;;
14247;SDS011;7208;49.826;6.004;2023-02-11T00:37:48;21.17;;;15.00;;
14247;SDS011;7208;49.826;6.004;2023-02-11T00:40:14;20.23;;;14.57;;
14247;SDS011;7208;49.826;6.004;2023-02-11T00:42:40;29.77;;;21.13;;
14247;SDS011;7208;49.826;6.004;2023-02-11T00:45:07;21.43;;;15.77;;
14247;SDS011;7208;49.826;6.004;2023-02-11T00:47:34;22.90;;;17.10;;
14247;SDS011;7208;49.826;6.004;2023-02-11T00:50:00;24.43;;;16.10;;
14247;SDS011;7208;49.826;6.004;2023-02-11T00:52:29;22.73;;;16.27;;
14247;SDS011;7208;49.826;6.004;2023-02-11T00:54:55;24.13;;;15.33;;
14247;SDS011;7208;49.826;6.004;2023-02-11T00:57:21;23.23;;;15.17;;
14247;SDS011;7208;49.826;6.004;2023-02-11T00:59:47;24.17;;;14.77;;
14247;SDS011;7208;49.826;6.004;2023-02-11T01:02:14;20.10;;;14.57;;
14247;SDS011;7208;49.826;6.004;2023-02-11T01:04:40;22.20;;;14.43;;
14247;SDS011;7208;49.826;6.004;2023-02-11T01:07:06;21.33;;;14.37;;
14247;SDS011;7208;49.826;6.004;2023-02-11T01:09:32;20.07;;;14.20;;
14247;SDS011;7208;49.826;6.004;2023-02-11T01:11:59;23.17;;;14.87;;
14247;SDS011;7208;49.826;6.004;2023-02-11T01:14:25;21.67;;;15.47;;
14247;SDS011;7208;49.826;6.004;2023-02-11T01:16:52;20.40;;;13.17;;
14247;SDS011;7208;49.826;6.004;2023-02-11T01:19:18;19.40;;;14.50;;
14247;SDS011;7208;49.826;6.004;2023-02-11T01:21:44;22.90;;;15.30;;
14247;SDS011;7208;49.826;6.004;2023-02-11T01:24:10;22.10;;;14.57;;
14247;SDS011;7208;49.826;6.004;2023-02-11T01:26:36;21.73;;;14.80;;
14247;SDS011;7208;49.826;6.004;2023-02-11T01:29:02;21.83;;;14.50;;
14247;SDS011;7208;49.826;6.004;2023-02-11T01:31:29;24.57;;;15.60;;
14247;SDS011;7208;49.826;6.004;2023-02-11T01:33:55;16.33;;;12.93;;
14247;SDS011;7208;49.826;6.004;2023-02-11T01:36:21;25.20;;;14.63;;
14247;SDS011;7208;49.826;6.004;2023-02-11T01:38:47;29.90;;;17.00;;
14247;SDS011;7208;49.826;6.004;2023-02-11T01:41:13;21.87;;;14.57;;
14247;SDS011;7208;49.826;6.004;2023-02-11T01:43:44;20.00;;;14.17;;
14247;SDS011;7208;49.826;6.004;2023-02-11T01:48:54;20.87;;;13.97;;
14247;SDS011;7208;49.826;6.004;2023-02-11T01:51:28;19.77;;;13.00;;
14247;SDS011;7208;49.826;6.004;2023-02-11T01:53:57;22.57;;;14.83;;
14247;SDS011;7208;49.826;6.004;2023-02-11T01:56:43;17.53;;;13.60;;
14247;SDS011;7208;49.826;6.004;2023-02-11T01:59:31;17.30;;;13.43;;
14247;SDS011;7208;49.826;6.004;2023-02-11T02:01:59;19.20;;;14.37;;
14247;SDS011;7208;49.826;6.004;2023-02-11T02:04:27;23.03;;;14.10;;
14247;SDS011;7208;49.826;6.004;2023-02-11T02:06:58;17.57;;;13.53;;
14247;SDS011;7208;49.826;6.004;2023-02-11T02:09:28;16.27;;;12.67;;
14247;SDS011;7208;49.826;6.004;2023-02-11T02:11:55;21.10;;;14.80;;
14247;SDS011;7208;49.826;6.004;2023-02-11T02:14:21;21.43;;;13.63;;
14247;SDS011;7208;49.826;6.004;2023-02-11T02:16:47;20.00;;;14.63;;
14247;SDS011;7208;49.826;6.004;2023-02-11T02:20:01;20.03;;;13.70;;
14247;SDS011;7208;49.826;6.004;2023-02-11T02:34:49;19.50;;;13.33;;
14247;SDS011;7208;49.826;6.004;2023-02-11T02:39:42;18.27;;;13.73;;
14247;SDS011;7208;49.826;6.004;2023-02-11T02:42:09;20.80;;;14.47;;
14247;SDS011;7208;49.826;6.004;2023-02-11T02:44:35;20.77;;;14.90;;
14247;SDS011;7208;49.826;6.004;2023-02-11T02:47:01;19.03;;;14.53;;
14247;SDS011;7208;49.826;6.004;2023-02-11T02:49:27;15.97;;;12.97;;
14247;SDS011;7208;49.826;6.004;2023-02-11T03:05:31;15.43;;;12.13;;
14247;SDS011;7208;49.826;6.004;2023-02-11T03:08:11;18.97;;;13.83;;
14247;SDS011;7208;49.826;6.004;2023-02-11T03:10:42;21.53;;;14.20;;
14247;SDS011;7208;49.826;6.004;2023-02-11T03:13:08;21.20;;;14.97;;
14247;SDS011;7208;49.826;6.004;2023-02-11T03:15:38;20.10;;;13.10;;
14247;SDS011;7208;49.826;6.004;2023-02-11T03:18:05;21.30;;;13.93;;
14247;SDS011;7208;49.826;6.004;2023-02-11T03:20:34;21.37;;;15.67;;
14247;SDS011;7208;49.826;6.004;2023-02-11T03:23:02;18.90;;;14.87;;
14247;SDS011;7208;49.826;6.004;2023-02-11T03:25:33;23.00;;;15.87;;
14247;SDS011;7208;49.826;6.004;2023-02-11T03:28:03;22.13;;;15.33;;
14247;SDS011;7208;49.826;6.004;2023-02-11T03:30:32;27.50;;;15.13;;
14247;SDS011;7208;49.826;6.004;2023-02-11T03:33:24;26.47;;;16.90;;
14247;SDS011;7208;49.826;6.004;2023-02-11T03:35:52;18.53;;;14.50;;
14247;SDS011;7208;49.826;6.004;2023-02-11T03:38:20;22.60;;;15.47;;
14247;SDS011;7208;49.826;6.004;2023-02-11T03:40:47;22.23;;;14.30;;
14247;SDS011;7208;49.826;6.004;2023-02-11T03:43:19;23.87;;;16.27;;
14247;SDS011;7208;49.826;6.004;2023-02-11T03:45:47;20.83;;;15.23;;
14247;SDS011;7208;49.826;6.004;2023-02-11T03:48:18;21.73;;;14.80;;
14247;SDS011;7208;49.826;6.004;2023-02-11T03:50:46;26.00;;;14.93;;
14247;SDS011;7208;49.826;6.004;2023-02-11T03:53:13;21.77;;;13.90;;
14247;SDS011;7208;49.826;6.004;2023-02-11T03:55:40;19.47;;;14.67;;
14247;SDS011;7208;49.826;6.004;2023-02-11T03:58:06;20.53;;;14.43;;
14247;SDS011;7208;49.826;6.004;2023-02-11T04:00:34;20.53;;;13.60;;
14247;SDS011;7208;49.826;6.004;2023-02-11T04:03:01;19.93;;;13.80;;
14247;SDS011;7208;49.826;6.004;2023-02-11T04:05:27;18.57;;;14.03;;
14247;SDS011;7208;49.826;6.004;2023-02-11T04:07:53;19.97;;;13.40;;
14247;SDS011;7208;49.826;6.004;2023-02-11T04:10:19;19.43;;;13.93;;
14247;SDS011;7208;49.826;6.004;2023-02-11T04:12:45;25.00;;;14.53;;
14247;SDS011;7208;49.826;6.004;2023-02-11T04:15:11;22.67;;;15.17;;
14247;SDS011;7208;49.826;6.004;2023-02-11T04:17:38;23.07;;;14.73;;
14247;SDS011;7208;49.826;6.004;2023-02-11T04:20:04;19.87;;;12.87;;
14247;SDS011;7208;49.826;6.004;2023-02-11T04:22:30;26.47;;;15.17;;
14247;SDS011;7208;49.826;6.004;2023-02-11T04:24:56;19.80;;;13.70;;
14247;SDS011;7208;49.826;6.004;2023-02-11T04:27:22;20.93;;;13.97;;
14247;SDS011;7208;49.826;6.004;2023-02-11T04:29:48;20.00;;;12.30;;
14247;SDS011;7208;49.826;6.004;2023-02-11T04:32:14;20.53;;;13.57;;
14247;SDS011;7208;49.826;6.004;2023-02-11T04:34:40;21.00;;;12.50;;
14247;SDS011;7208;49.826;6.004;2023-02-11T04:37:06;20.40;;;14.03;;
14247;SDS011;7208;49.826;6.004;2023-02-11T04:39:33;20.00;;;13.43;;
14247;SDS011;7208;49.826;6.004;2023-02-11T04:41:59;22.07;;;13.20;;
14247;SDS011;7208;49.826;6.004;2023-02-11T04:44:25;21.30;;;14.03;;
14247;SDS011;7208;49.826;6.004;2023-02-11T04:46:51;20.53;;;13.80;;
14247;SDS011;7208;49.826;6.004;2023-02-11T04:49:17;23.93;;;14.63;;
14247;SDS011;7208;49.826;6.004;2023-02-11T04:51:43;23.17;;;14.63;;
14247;SDS011;7208;49.826;6.004;2023-02-11T04:54:09;17.67;;;13.00;;
14247;SDS011;7208;49.826;6.004;2023-02-11T04:56:36;23.13;;;13.33;;
14247;SDS011;7208;49.826;6.004;2023-02-11T04:59:02;20.67;;;13.50;;
14247;SDS011;7208;49.826;6.004;2023-02-11T05:01:28;22.63;;;15.00;;
14247;SDS011;7208;49.826;6.004;2023-02-11T05:03:54;20.33;;;15.03;;
14247;SDS011;7208;49.826;6.004;2023-02-11T05:06:20;18.77;;;11.97;;
14247;SDS011;7208;49.826;6.004;2023-02-11T05:08:46;23.73;;;14.47;;
14247;SDS011;7208;49.826;6.004;2023-02-11T05:11:17;22.50;;;15.27;;
14247;SDS011;7208;49.826;6.004;2023-02-11T05:13:43;19.63;;;13.50;;
14247;SDS011;7208;49.826;6.004;2023-02-11T05:16:09;26.00;;;15.73;;
14247;SDS011;7208;49.826;6.004;2023-02-11T05:18:39;22.17;;;14.67;;
14247;SDS011;7208;49.826;6.004;2023-02-11T05:21:13;20.50;;;13.73;;
14247;SDS011;7208;49.826;6.004;2023-02-11T05:23:40;25.60;;;14.97;;
14247;SDS011;7208;49.826;6.004;2023-02-11T05:26:06;23.17;;;15.07;;
14247;SDS011;7208;49.826;6.004;2023-02-11T05:28:33;20.67;;;14.60;;
14247;SDS011;7208;49.826;6.004;2023-02-11T05:30:59;22.03;;;14.20;;
14247;SDS011;7208;49.826;6.004;2023-02-11T05:33:25;18.17;;;13.07;;
14247;SDS011;7208;49.826;6.004;2023-02-11T05:35:51;23.50;;;13.93;;
14247;SDS011;7208;49.826;6.004;2023-02-11T05:38:17;18.20;;;13.97;;
14247;SDS011;7208;49.826;6.004;2023-02-11T05:40:43;20.83;;;13.10;;
14247;SDS011;7208;49.826;6.004;2023-02-11T05:43:09;19.70;;;15.27;;
14247;SDS011;7208;49.826;6.004;2023-02-11T05:45:35;24.50;;;15.47;;
14247;SDS011;7208;49.826;6.004;2023-02-11T05:48:01;19.67;;;13.43;;
14247;SDS011;7208;49.826;6.004;2023-02-11T05:50:27;20.47;;;14.40;;
14247;SDS011;7208;49.826;6.004;2023-02-11T05:52:53;23.30;;;15.73;;
14247;SDS011;7208;49.826;6.004;2023-02-11T05:55:19;24.20;;;15.93;;
14247;SDS011;7208;49.826;6.004;2023-02-11T05:57:45;28.87;;;16.83;;
14247;SDS011;7208;49.826;6.004;2023-02-11T06:00:11;25.20;;;16.67;;
14247;SDS011;7208;49.826;6.004;2023-02-11T06:02:38;29.77;;;15.57;;
14247;SDS011;7208;49.826;6.004;2023-02-11T06:05:04;26.97;;;15.20;;
14247;SDS011;7208;49.826;6.004;2023-02-11T06:07:30;25.27;;;16.70;;
14247;SDS011;7208;49.826;6.004;2023-02-11T06:09:56;25.97;;;16.87;;
14247;SDS011;7208;49.826;6.004;2023-02-11T06:12:23;29.27;;;17.13;;
14247;SDS011;7208;49.826;6.004;2023-02-11T06:14:49;34.73;;;19.57;;
14247;SDS011;7208;49.826;6.004;2023-02-11T06:17:15;30.87;;;18.23;;
14247;SDS011;7208;49.826;6.004;2023-02-11T06:19:41;25.27;;;18.63;;
14247;SDS011;7208;49.826;6.004;2023-02-11T06:22:07;30.93;;;18.10;;
14247;SDS011;7208;49.826;6.004;2023-02-11T06:24:33;35.77;;;18.93;;
14247;SDS011;7208;49.826;6.004;2023-02-11T06:26:59;34.40;;;19.87;;
14247;SDS011;7208;49.826;6.004;2023-02-11T06:29:25;35.27;;;18.87;;
14247;SDS011;7208;49.826;6.004;2023-02-11T06:31:51;29.17;;;18.90;;
14247;SDS011;7208;49.826;6.004;2023-02-11T06:34:17;29.60;;;18.47;;
14247;SDS011;7208;49.826;6.004;2023-02-11T06:36:43;30.60;;;19.40;;
14247;SDS011;7208;49.826;6.004;2023-02-11T06:39:10;31.23;;;17.33;;
14247;SDS011;7208;49.826;6.004;2023-02-11T06:41:37;23.40;;;17.40;;
14247;SDS011;7208;49.826;6.004;2023-02-11T06:44:03;28.83;;;18.20;;
14247;SDS011;7208;49.826;6.004;2023-02-11T06:46:29;31.60;;;17.70;;
14247;SDS011;7208;49.826;6.004;2023-02-11T06:48:55;34.47;;;19.43;;
14247;SDS011;7208;49.826;6.004;2023-02-11T06:51:21;31.33;;;19.73;;
14247;SDS011;7208;49.826;6.004;2023-02-11T06:53:47;30.43;;;16.83;;
14247;SDS011;7208;49.826;6.004;2023-02-11T06:56:15;32.47;;;18.97;;
14247;SDS011;7208;49.826;6.004;2023-02-11T06:58:41;28.57;;;19.63;;
14247;SDS011;7208;49.826;6.004;2023-02-11T07:01:09;28.03;;;17.90;;
14247;SDS011;7208;49.826;6.004;2023-02-11T07:03:35;35.03;;;20.93;;
14247;SDS011;7208;49.826;6.004;2023-02-11T07:06:02;36.50;;;20.30;;
14247;SDS011;7208;49.826;6.004;2023-02-11T07:08:29;27.63;;;17.97;;
14247;SDS011;7208;49.826;6.004;2023-02-11T07:10:55;30.47;;;20.20;;
14247;SDS011;7208;49.826;6.004;2023-02-11T07:13:21;36.03;;;20.43;;
14247;SDS011;7208;49.826;6.004;2023-02-11T07:15:47;31.10;;;19.17;;
14247;SDS011;7208;49.826;6.004;2023-02-11T07:18:14;31.07;;;20.80;;
14247;SDS011;7208;49.826;6.004;2023-02-11T07:20:40;29.77;;;18.13;;
14247;SDS011;7208;49.826;6.004;2023-02-11T07:23:06;31.00;;;19.70;;
14247;SDS011;7208;49.826;6.004;2023-02-11T07:25:32;29.07;;;18.47;;
14247;SDS011;7208;49.826;6.004;2023-02-11T07:27:58;35.30;;;20.13;;
14247;SDS011;7208;49.826;6.004;2023-02-11T07:30:24;28.93;;;19.77;;
14247;SDS011;7208;49.826;6.004;2023-02-11T07:32:50;23.37;;;17.33;;
14247;SDS011;7208;49.826;6.004;2023-02-11T07:35:16;28.93;;;19.60;;
14247;SDS011;7208;49.826;6.004;2023-02-11T07:37:42;34.40;;;21.43;;
14247;SDS011;7208;49.826;6.004;2023-02-11T07:40:08;40.57;;;21.83;;
14247;SDS011;7208;49.826;6.004;2023-02-11T07:42:35;36.33;;;20.60;;
14247;SDS011;7208;49.826;6.004;2023-02-11T07:45:01;32.87;;;20.50;;
14247;SDS011;7208;49.826;6.004;2023-02-11T07:47:27;27.80;;;19.00;;
14247;SDS011;7208;49.826;6.004;2023-02-11T07:49:53;31.03;;;18.20;;
14247;SDS011;7208;49.826;6.004;2023-02-11T07:52:19;31.70;;;20.00;;
14247;SDS011;7208;49.826;6.004;2023-02-11T07:54:47;35.83;;;20.33;;
14247;SDS011;7208;49.826;6.004;2023-02-11T07:57:13;34.00;;;19.77;;
14247;SDS011;7208;49.826;6.004;2023-02-11T07:59:39;33.43;;;19.07;;
14247;SDS011;7208;49.826;6.004;2023-02-11T08:02:05;31.67;;;20.63;;
14247;SDS011;7208;49.826;6.004;2023-02-11T08:04:31;31.93;;;20.30;;
14247;SDS011;7208;49.826;6.004;2023-02-11T08:06:57;30.43;;;18.57;;
14247;SDS011;7208;49.826;6.004;2023-02-11T08:09:23;28.57;;;19.20;;
14247;SDS011;7208;49.826;6.004;2023-02-11T08:11:49;34.30;;;21.10;;
14247;SDS011;7208;49.826;6.004;2023-02-11T08:14:15;28.07;;;19.20;;
14247;SDS011;7208;49.826;6.004;2023-02-11T08:16:41;28.87;;;19.17;;
14247;SDS011;7208;49.826;6.004;2023-02-11T08:19:09;33.37;;;21.00;;
14247;SDS011;7208;49.826;6.004;2023-02-11T08:21:36;33.37;;;21.47;;
14247;SDS011;7208;49.826;6.004;2023-02-11T08:24:03;26.90;;;18.73;;
14247;SDS011;7208;49.826;6.004;2023-02-11T08:26:30;31.10;;;19.67;;
14247;SDS011;7208;49.826;6.004;2023-02-11T08:28:57;24.43;;;18.10;;
14247;SDS011;7208;49.826;6.004;2023-02-11T08:31:24;33.63;;;21.07;;
14247;SDS011;7208;49.826;6.004;2023-02-11T08:33:51;30.00;;;18.40;;
14247;SDS011;7208;49.826;6.004;2023-02-11T08:36:24;24.60;;;16.60;;
14247;SDS011;7208;49.826;6.004;2023-02-11T08:38:50;33.50;;;21.10;;
14247;SDS011;7208;49.826;6.004;2023-02-11T08:41:16;33.30;;;19.53;;
14247;SDS011;7208;49.826;6.004;2023-02-11T08:43:43;27.07;;;18.67;;
14247;SDS011;7208;49.826;6.004;2023-02-11T08:46:11;32.17;;;20.27;;
14247;SDS011;7208;49.826;6.004;2023-02-11T08:48:37;29.10;;;20.10;;
14247;SDS011;7208;49.826;6.004;2023-02-11T08:51:07;33.57;;;21.03;;
14247;SDS011;7208;49.826;6.004;2023-02-11T08:53:33;28.37;;;19.00;;
14247;SDS011;7208;49.826;6.004;2023-02-11T08:55:59;27.37;;;17.53;;
14247;SDS011;7208;49.826;6.004;2023-02-11T08:58:25;33.70;;;21.03;;
14247;SDS011;7208;49.826;6.004;2023-02-11T09:00:52;28.83;;;20.33;;
14247;SDS011;7208;49.826;6.004;2023-02-11T09:03:18;36.20;;;21.97;;
14247;SDS011;7208;49.826;6.004;2023-02-11T09:05:46;34.53;;;22.73;;
14247;SDS011;7208;49.826;6.004;2023-02-11T09:08:13;36.47;;;21.37;;
14247;SDS011;7208;49.826;6.004;2023-02-11T09:10:39;33.80;;;21.10;;
14247;SDS011;7208;49.826;6.004;2023-02-11T09:13:05;36.40;;;21.37;;
14247;SDS011;7208;49.826;6.004;2023-02-11T09:15:32;36.17;;;21.80;;
14247;SDS011;7208;49.826;6.004;2023-02-11T09:17:58;32.60;;;21.40;;
14247;SDS011;7208;49.826;6.004;2023-02-11T09:20:24;35.57;;;22.33;;
14247;SDS011;7208;49.826;6.004;2023-02-11T09:22:53;38.37;;;23.63;;
14247;SDS011;7208;49.826;6.004;2023-02-11T09:25:21;41.77;;;22.97;;
14247;SDS011;7208;49.826;6.004;2023-02-11T09:27:47;38.77;;;22.17;;
14247;SDS011;7208;49.826;6.004;2023-02-11T09:30:13;33.87;;;22.70;;
14247;SDS011;7208;49.826;6.004;2023-02-11T09:32:39;36.03;;;23.00;;
14247;SDS011;7208;49.826;6.004;2023-02-11T09:35:05;36.80;;;22.47;;
14247;SDS011;7208;49.826;6.004;2023-02-11T09:37:31;42.87;;;26.30;;
14247;SDS011;7208;49.826;6.004;2023-02-11T09:39:57;38.13;;;25.17;;
14247;SDS011;7208;49.826;6.004;2023-02-11T09:45:09;38.70;;;23.40;;
14247;SDS011;7208;49.826;6.004;2023-02-11T09:47:41;40.60;;;24.53;;
14247;SDS011;7208;49.826;6.004;2023-02-11T09:50:11;39.97;;;22.20;;
14247;SDS011;7208;49.826;6.004;2023-02-11T09:52:55;36.77;;;22.67;;
14247;SDS011;7208;49.826;6.004;2023-02-11T09:55:27;38.07;;;22.63;;
14247;SDS011;7208;49.826;6.004;2023-02-11T09:57:54;37.97;;;23.90;;
14247;SDS011;7208;49.826;6.004;2023-02-11T10:05:31;34.37;;;23.87;;
14247;SDS011;7208;49.826;6.004;2023-02-11T10:08:08;33.63;;;22.40;;
14247;SDS011;7208;49.826;6.004;2023-02-11T10:18:57;35.77;;;22.60;;
14247;SDS011;7208;49.826;6.004;2023-02-11T10:21:29;32.77;;;22.33;;
14247;SDS011;7208;49.826;6.004;2023-02-11T10:23:59;30.70;;;20.53;;
14247;SDS011;7208;49.826;6.004;2023-02-11T10:26:29;36.93;;;23.27;;
14247;SDS011;7208;49.826;6.004;2023-02-11T10:28:55;36.97;;;22.80;;
14247;SDS011;7208;49.826;6.004;2023-02-11T10:31:35;36.80;;;22.70;;
14247;SDS011;7208;49.826;6.004;2023-02-11T10:34:03;34.93;;;22.50;;
14247;SDS011;7208;49.826;6.004;2023-02-11T10:36:34;35.77;;;23.07;;
14247;SDS011;7208;49.826;6.004;2023-02-11T10:41:35;37.17;;;21.90;;
14247;SDS011;7208;49.826;6.004;2023-02-11T10:44:05;33.27;;;20.23;;
14247;SDS011;7208;49.826;6.004;2023-02-11T10:46:32;29.77;;;21.17;;
14247;SDS011;7208;49.826;6.004;2023-02-11T10:48:59;32.80;;;21.30;;
14247;SDS011;7208;49.826;6.004;2023-02-11T10:51:28;31.37;;;21.13;;
14247;SDS011;7208;49.826;6.004;2023-02-11T10:56:35;27.87;;;19.23;;
14247;SDS011;7208;49.826;6.004;2023-02-11T10:59:17;25.47;;;18.70;;
14247;SDS011;7208;49.826;6.004;2023-02-11T11:01:49;29.80;;;19.67;;
14247;SDS011;7208;49.826;6.004;2023-02-11T11:09:43;24.63;;;18.43;;
14247;SDS011;7208;49.826;6.004;2023-02-11T11:14:58;23.80;;;17.40;;
14247;SDS011;7208;49.826;6.004;2023-02-11T11:17:24;23.03;;;17.80;;
14247;SDS011;7208;49.826;6.004;2023-02-11T11:20:42;23.97;;;17.43;;
14247;SDS011;7208;49.826;6.004;2023-02-11T11:22:40;24.33;;;17.73;;
14247;SDS011;7208;49.826;6.004;2023-02-11T11:25:26;25.23;;;18.30;;
14247;SDS011;7208;49.826;6.004;2023-02-11T11:27:54;19.27;;;15.60;;
14247;SDS011;7208;49.826;6.004;2023-02-11T11:30:21;23.67;;;16.90;;
14247;SDS011;7208;49.826;6.004;2023-02-11T11:32:48;22.23;;;17.23;;
14247;SDS011;7208;49.826;6.004;2023-02-11T11:35:22;21.23;;;16.13;;
14247;SDS011;7208;49.826;6.004;2023-02-11T11:38:10;20.27;;;16.10;;
14247;SDS011;7208;49.826;6.004;2023-02-11T11:40:37;24.13;;;17.33;;
14247;SDS011;7208;49.826;6.004;2023-02-11T11:43:05;24.07;;;17.47;;
14247;SDS011;7208;49.826;6.004;2023-02-11T11:45:31;20.57;;;16.40;;
14247;SDS011;7208;49.826;6.004;2023-02-11T11:47:58;22.43;;;17.40;;
14247;SDS011;7208;49.826;6.004;2023-02-11T11:50:26;21.87;;;17.43;;
14247;SDS011;7208;49.826;6.004;2023-02-11T11:52:57;22.83;;;16.60;;
14247;SDS011;7208;49.826;6.004;2023-02-11T11:55:47;21.47;;;17.20;;
14247;SDS011;7208;49.826;6.004;2023-02-11T11:58:16;21.30;;;16.53;;
14247;SDS011;7208;49.826;6.004;2023-02-11T12:00:53;23.13;;;17.17;;
14247;SDS011;7208;49.826;6.004;2023-02-11T12:03:30;22.77;;;15.73;;
14247;SDS011;7208;49.826;6.004;2023-02-11T12:08:47;22.17;;;16.33;;
14247;SDS011;7208;49.826;6.004;2023-02-11T12:22:04;21.90;;;17.20;;
14247;SDS011;7208;49.826;6.004;2023-02-11T12:27:10;23.77;;;16.83;;
14247;SDS011;7208;49.826;6.004;2023-02-11T12:34:45;19.13;;;14.83;;
14247;SDS011;7208;49.826;6.004;2023-02-11T12:45:14;17.33;;;15.03;;
14247;SDS011;7208;49.826;6.004;2023-02-11T12:52:57;16.77;;;13.63;;
14247;SDS011;7208;49.826;6.004;2023-02-11T12:55:25;17.27;;;13.70;;
14247;SDS011;7208;49.826;6.004;2023-02-11T12:57:53;12.67;;;11.13;;
14247;SDS011;7208;49.826;6.004;2023-02-11T13:00:24;16.07;;;12.57;;
14247;SDS011;7208;49.826;6.004;2023-02-11T13:05:37;13.00;;;11.67;;
14247;SDS011;7208;49.826;6.004;2023-02-11T13:10:40;16.07;;;13.57;;
14247;SDS011;7208;49.826;6.004;2023-02-11T13:13:13;17.20;;;13.93;;
14247;SDS011;7208;49.826;6.004;2023-02-11T13:15:52;16.77;;;14.10;;
14247;SDS011;7208;49.826;6.004;2023-02-11T13:18:29;16.70;;;13.13;;
14247;SDS011;7208;49.826;6.004;2023-02-11T13:37:20;14.67;;;12.30;;
14247;SDS011;7208;49.826;6.004;2023-02-11T13:39:59;16.03;;;13.53;;
14247;SDS011;7208;49.826;6.004;2023-02-11T13:42:26;11.57;;;10.37;;
14247;SDS011;7208;49.826;6.004;2023-02-11T13:44:53;13.00;;;11.13;;
14247;SDS011;7208;49.826;6.004;2023-02-11T13:47:24;11.97;;;10.77;;
14247;SDS011;7208;49.826;6.004;2023-02-11T13:49:52;11.60;;;10.40;;
14247;SDS011;7208;49.826;6.004;2023-02-11T13:52:26;11.30;;;10.10;;
14247;SDS011;7208;49.826;6.004;2023-02-11T13:54:53;9.70;;;8.70;;
14247;SDS011;7208;49.826;6.004;2023-02-11T13:59:48;9.97;;;8.30;;
14247;SDS011;7208;49.826;6.004;2023-02-11T14:02:34;7.87;;;7.07;;
14247;SDS011;7208;49.826;6.004;2023-02-11T14:05:21;7.03;;;6.30;;
14247;SDS011;7208;49.826;6.004;2023-02-11T14:10:55;6.33;;;5.73;;
14247;SDS011;7208;49.826;6.004;2023-02-11T14:13:25;6.30;;;5.70;;
14247;SDS011;7208;49.826;6.004;2023-02-11T14:18:57;7.40;;;6.70;;
14247;SDS011;7208;49.826;6.004;2023-02-11T14:24:44;6.67;;;5.97;;
14247;SDS011;7208;49.826;6.004;2023-02-11T14:26:46;7.37;;;6.67;;
14247;SDS011;7208;49.826;6.004;2023-02-11T14:31:49;7.80;;;6.23;;
14247;SDS011;7208;49.826;6.004;2023-02-11T14:37:01;8.30;;;6.97;;
14247;SDS011;7208;49.826;6.004;2023-02-11T14:42:17;7.17;;;6.47;;
14247;SDS011;7208;49.826;6.004;2023-02-11T14:44:45;8.40;;;6.47;;
14247;SDS011;7208;49.826;6.004;2023-02-11T14:47:17;7.90;;;7.10;;
14247;SDS011;7208;49.826;6.004;2023-02-11T14:49:43;6.97;;;6.27;;
14247;SDS011;7208;49.826;6.004;2023-02-11T14:54:48;7.67;;;6.90;;
14247;SDS011;7208;49.826;6.004;2023-02-11T14:57:16;7.13;;;6.43;;
14247;SDS011;7208;49.826;6.004;2023-02-11T14:59:59;7.13;;;6.43;;
14247;SDS011;7208;49.826;6.004;2023-02-11T15:02:29;7.03;;;6.20;;
14247;SDS011;7208;49.826;6.004;2023-02-11T15:05:12;6.87;;;6.17;;
14247;SDS011;7208;49.826;6.004;2023-02-11T15:07:50;8.60;;;6.87;;
14247;SDS011;7208;49.826;6.004;2023-02-11T15:10:26;7.83;;;6.47;;
14247;SDS011;7208;49.826;6.004;2023-02-11T15:12:53;7.77;;;6.87;;
14247;SDS011;7208;49.826;6.004;2023-02-11T15:15:19;24.10;;;21.07;;
14247;SDS011;7208;49.826;6.004;2023-02-11T15:17:45;7.90;;;7.10;;
14247;SDS011;7208;49.826;6.004;2023-02-11T15:20:17;7.43;;;6.73;;
14247;SDS011;7208;49.826;6.004;2023-02-11T15:22:44;13.73;;;12.40;;
14247;SDS011;7208;49.826;6.004;2023-02-11T15:25:12;7.60;;;6.80;;
14247;SDS011;7208;49.826;6.004;2023-02-11T15:27:50;8.83;;;7.93;;
14247;SDS011;7208;49.826;6.004;2023-02-11T15:30:38;7.10;;;6.40;;
14247;SDS011;7208;49.826;6.004;2023-02-11T15:33:03;16.43;;;14.73;;
14247;SDS011;7208;49.826;6.004;2023-02-11T15:35:34;8.37;;;7.10;;
14247;SDS011;7208;49.826;6.004;2023-02-11T15:38:01;7.33;;;6.63;;
14247;SDS011;7208;49.826;6.004;2023-02-11T15:40:29;6.20;;;5.60;;
14247;SDS011;7208;49.826;6.004;2023-02-11T15:43:03;6.00;;;5.40;;
14247;SDS011;7208;49.826;6.004;2023-02-11T15:45:33;15.02;;;13.48;;
14247;SDS011;7208;49.826;6.004;2023-02-11T15:48:04;18.20;;;14.43;;
14247;SDS011;7208;49.826;6.004;2023-02-11T15:50:31;6.03;;;5.43;;
14247;SDS011;7208;49.826;6.004;2023-02-11T15:53:01;5.70;;;4.73;;
14247;SDS011;7208;49.826;6.004;2023-02-11T15:55:28;5.40;;;4.90;;
14247;SDS011;7208;49.826;6.004;2023-02-11T15:57:55;4.77;;;4.33;;
14247;SDS011;7208;49.826;6.004;2023-02-11T16:00:23;5.97;;;5.47;;
14247;SDS011;7208;49.826;6.004;2023-02-11T16:02:49;3.90;;;3.60;;
14247;SDS011;7208;49.826;6.004;2023-02-11T16:05:35;3.90;;;3.60;;
14247;SDS011;7208;49.826;6.004;2023-02-11T16:08:12;4.20;;;3.80;;
14247;SDS011;7208;49.826;6.004;2023-02-11T16:10:38;4.80;;;4.30;;
14247;SDS011;7208;49.826;6.004;2023-02-11T16:18:03;6.97;;;6.03;;
14247;SDS011;7208;49.826;6.004;2023-02-11T16:20:30;7.73;;;5.90;;
14247;SDS011;7208;49.826;6.004;2023-02-11T16:22:56;5.40;;;4.90;;
14247;SDS011;7208;49.826;6.004;2023-02-11T16:25:22;5.23;;;4.73;;
14247;SDS011;7208;49.826;6.004;2023-02-11T16:27:50;6.23;;;5.60;;
14247;SDS011;7208;49.826;6.004;2023-02-11T16:30:25;5.20;;;4.70;;
14247;SDS011;7208;49.826;6.004;2023-02-11T16:32:52;4.00;;;3.60;;
14247;SDS011;7208;49.826;6.004;2023-02-11T16:35:18;4.10;;;3.37;;
14247;SDS011;7208;49.826;6.004;2023-02-11T16:37:44;5.23;;;4.70;;
14247;SDS011;7208;49.826;6.004;2023-02-11T16:40:11;7.87;;;6.63;;
14247;SDS011;7208;49.826;6.004;2023-02-11T16:42:38;6.00;;;5.40;;
14247;SDS011;7208;49.826;6.004;2023-02-11T16:45:04;8.13;;;6.20;;
14247;SDS011;7208;49.826;6.004;2023-02-11T16:47:30;8.50;;;6.47;;
14247;SDS011;7208;49.826;6.004;2023-02-11T16:49:58;7.07;;;6.30;;
14247;SDS011;7208;49.826;6.004;2023-02-11T16:52:25;7.60;;;6.80;;
14247;SDS011;7208;49.826;6.004;2023-02-11T16:54:51;8.97;;;7.53;;
14247;SDS011;7208;49.826;6.004;2023-02-11T16:57:21;9.23;;;8.27;;
14247;SDS011;7208;49.826;6.004;2023-02-11T16:59:48;9.43;;;8.30;;
14247;SDS011;7208;49.826;6.004;2023-02-11T17:02:15;7.77;;;6.97;;
14247;SDS011;7208;49.826;6.004;2023-02-11T17:04:43;10.33;;;8.50;;
14247;SDS011;7208;49.826;6.004;2023-02-11T17:07:09;10.00;;;8.23;;
14247;SDS011;7208;49.826;6.004;2023-02-11T17:09:35;9.93;;;8.77;;